createdAt,value
2019-02-17T00:00:51.724Z,100259.72
2019-02-17T00:03:22.552Z,100258.05
2019-02-17T00:05:53.457Z,100254.21
2019-02-17T00:08:24.228Z,100249.38
2019-02-17T00:10:55.374Z,100252.73
2019-02-17T00:13:26.309Z,100249.11
2019-02-17T00:15:57.245Z,100249.89
2019-02-17T00:18:28.203Z,100251.84
2019-02-17T00:20:59.037Z,100249.66
2019-02-17T00:23:30.003Z,100252.59
2019-02-17T00:26:00.893Z,100250.13
2019-02-17T00:28:31.791Z,100248.61
2019-02-17T00:31:02.767Z,100250.56
2019-02-17T00:33:33.760Z,100244.41
2019-02-17T00:36:04.647Z,100245.66
2019-02-17T00:38:35.936Z,100242.73
2019-02-17T00:41:06.750Z,100242.39
2019-02-17T00:43:37.821Z,100241.69
2019-02-17T00:46:09.333Z,100244.12
2019-02-17T00:48:40.341Z,100234.91
2019-02-17T00:51:11.221Z,100242.10
2019-02-17T00:53:42.012Z,100240.63
2019-02-17T00:56:12.983Z,100238.66
2019-02-17T00:58:43.927Z,100243.13
2019-02-17T01:01:14.967Z,100245.99
2019-02-17T01:03:45.870Z,100246.10
2019-02-17T01:06:16.750Z,100237.58
2019-02-17T01:08:47.634Z,100245.62
2019-02-17T01:11:18.319Z,100250.31
2019-02-17T01:13:49.367Z,100253.44
2019-02-17T01:16:20.199Z,100252.40
2019-02-17T01:18:51.176Z,100252.54
2019-02-17T01:21:22.080Z,100249.52
2019-02-17T01:23:53.148Z,100246.30
2019-02-17T01:26:24.037Z,100252.03
2019-02-17T01:28:55.304Z,100252.03
2019-02-17T01:31:26.247Z,100249.43
2019-02-17T01:33:57.478Z,100249.20
2019-02-17T01:36:28.303Z,100251.38
2019-02-17T01:38:59.495Z,100253.05
2019-02-17T01:41:30.307Z,100248.25
2019-02-17T01:44:01.592Z,100251.43
2019-02-17T01:46:32.467Z,100246.32
2019-02-17T01:49:03.386Z,100250.02
2019-02-17T01:51:34.279Z,100240.78
2019-02-17T01:54:05.252Z,100235.14
2019-02-17T01:56:36.126Z,100237.19
2019-02-17T01:59:07.127Z,100241.26
2019-02-17T02:01:37.996Z,100239.80
2019-02-17T02:04:09.021Z,100234.01
2019-02-17T02:06:39.971Z,100229.52
2019-02-17T02:09:11.788Z,100231.83
2019-02-17T02:11:42.692Z,100228.33
2019-02-17T02:14:13.767Z,100226.06
2019-02-17T02:16:44.555Z,100220.14
2019-02-17T02:19:15.535Z,100218.75
2019-02-17T02:21:47.353Z,100219.67
2019-02-17T02:24:18.492Z,100210.80
2019-02-17T02:26:49.249Z,100217.34
2019-02-17T02:29:20.430Z,100219.38
2019-02-17T02:31:51.724Z,100219.85
2019-02-17T02:34:23.267Z,100214.78
2019-02-17T02:36:54.120Z,100210.71
2019-02-17T02:39:25.159Z,100208.05
2019-02-17T02:41:56.096Z,100209.67
2019-02-17T02:44:27.101Z,100201.33
2019-02-17T02:46:57.885Z,100209.28
2019-02-17T02:49:28.779Z,100201.95
2019-02-17T02:51:59.557Z,100205.60
2019-02-17T02:54:30.441Z,100212.90
2019-02-17T02:57:01.208Z,100203.80
2019-02-17T02:59:32.679Z,100193.11
2019-02-17T03:02:03.514Z,100185.38
2019-02-17T03:04:34.689Z,100184.81
2019-02-17T03:07:08.700Z,100193.14
2019-02-17T03:09:39.624Z,100195.65
2019-02-17T03:12:10.555Z,100189.87
2019-02-17T03:14:41.342Z,100186.05
2019-02-17T03:17:12.237Z,100181.31
2019-02-17T03:19:43.391Z,100189.02
2019-02-17T03:22:14.283Z,100184.53
2019-02-17T03:24:46.107Z,100175.30
2019-02-17T03:27:16.983Z,100179.52
2019-02-17T03:29:48.262Z,100181.25
2019-02-17T03:32:19.079Z,100179.98
2019-02-17T03:34:50.126Z,100179.47
2019-02-17T03:37:21.149Z,100177.48
2019-02-17T03:39:52.062Z,100181.83
2019-02-17T03:42:23.143Z,100178.23
2019-02-17T03:44:54.108Z,100180.74
2019-02-17T03:47:25.000Z,100178.41
2019-02-17T03:49:55.804Z,100174.58
2019-02-17T03:52:26.666Z,100183.98
2019-02-17T03:54:58.387Z,100175.19
2019-02-17T03:57:29.266Z,100174.14
2019-02-17T04:00:00.409Z,100176.45
2019-02-17T04:02:31.268Z,100168.78
2019-02-17T04:05:02.464Z,100176.45
2019-02-17T04:07:34.366Z,100178.44
2019-02-17T04:10:05.578Z,100175.03
2019-02-17T04:12:36.479Z,100180.47
2019-02-17T04:15:07.508Z,100176.87
2019-02-17T04:17:38.322Z,100176.32
2019-02-17T04:20:09.420Z,100177.58
2019-02-17T04:22:41.230Z,100182.20
2019-02-17T04:25:12.220Z,100187.53
2019-02-17T04:27:43.194Z,100177.55
2019-02-17T04:30:14.432Z,100180.20
2019-02-17T04:32:45.293Z,100175.45
2019-02-17T04:35:16.373Z,100184.58
2019-02-17T04:37:47.162Z,100171.58
2019-02-17T04:40:18.056Z,100183.80
2019-02-17T04:42:48.926Z,100187.66
2019-02-17T04:45:19.901Z,100186.08
2019-02-17T04:47:50.856Z,100185.19
2019-02-17T04:50:21.657Z,100186.84
2019-02-17T04:52:52.524Z,100190.20
2019-02-17T04:55:23.365Z,100186.84
2019-02-17T04:57:54.255Z,100186.73
2019-02-17T05:00:25.159Z,100190.00
2019-02-17T05:02:56.032Z,100180.49
2019-02-17T05:05:27.044Z,100185.52
2019-02-17T05:07:57.913Z,100184.09
2019-02-17T05:10:28.882Z,100183.34
2019-02-17T05:12:59.585Z,100191.42
2019-02-17T05:15:30.524Z,100186.73
2019-02-17T05:18:01.437Z,100181.34
2019-02-17T05:20:32.309Z,100178.22
2019-02-17T05:23:03.244Z,100184.12
2019-02-17T05:25:34.144Z,100183.06
2019-02-17T05:28:05.005Z,100179.44
2019-02-17T05:30:35.894Z,100169.97
2019-02-17T05:33:06.704Z,100178.52
2019-02-17T05:35:37.983Z,100179.25
2019-02-17T05:38:08.875Z,100178.30
2019-02-17T05:40:39.781Z,100176.50
2019-02-17T05:43:10.746Z,100176.02
2019-02-17T05:45:41.653Z,100177.52
2019-02-17T05:48:12.633Z,100173.31
2019-02-17T05:50:43.556Z,100177.27
2019-02-17T05:53:14.292Z,100174.85
2019-02-17T05:55:45.185Z,100176.05
2019-02-17T05:58:15.981Z,100170.02
2019-02-17T06:00:46.953Z,100179.87
2019-02-17T06:03:17.968Z,100174.48
2019-02-17T06:05:48.948Z,100169.08
2019-02-17T06:08:19.736Z,100176.52
2019-02-17T06:10:50.805Z,100177.10
2019-02-17T06:13:21.729Z,100180.51
2019-02-17T06:15:52.766Z,100180.51
2019-02-17T06:18:23.682Z,100184.95
2019-02-17T06:20:54.584Z,100183.29
2019-02-17T06:23:25.373Z,100180.64
2019-02-17T06:25:56.267Z,100183.55
2019-02-17T06:28:27.245Z,100187.41
2019-02-17T06:30:58.215Z,100177.41
2019-02-17T06:33:29.053Z,100184.89
2019-02-17T06:36:02.257Z,100181.74
2019-02-17T06:38:33.204Z,100187.03
2019-02-17T06:41:03.973Z,100187.30
2019-02-17T06:43:35.154Z,100186.84
2019-02-17T06:46:06.255Z,100193.32
2019-02-17T06:48:37.781Z,100194.04
2019-02-17T06:51:08.548Z,100192.21
2019-02-17T06:53:39.464Z,100188.48
2019-02-17T06:56:31.927Z,100185.83
2019-02-17T06:59:02.830Z,100193.16
2019-02-17T07:01:33.719Z,100187.98
2019-02-17T07:04:05.004Z,100186.78
2019-02-17T07:06:38.753Z,100183.61
2019-02-17T07:09:09.645Z,100185.54
2019-02-17T07:11:40.647Z,100185.17
2019-02-17T07:14:11.538Z,100185.31
2019-02-17T07:16:42.633Z,100187.34
2019-02-17T07:19:14.232Z,100187.19
2019-02-17T07:21:45.021Z,100184.99
2019-02-17T07:24:16.261Z,100192.59
2019-02-17T07:26:47.099Z,100187.16
2019-02-17T07:29:17.964Z,100191.83
2019-02-17T07:31:48.873Z,100185.77
2019-02-17T07:34:19.797Z,100183.08
2019-02-17T07:36:50.736Z,100184.00
2019-02-17T07:39:21.674Z,100184.11
2019-02-17T07:41:52.510Z,100192.26
2019-02-17T07:44:23.393Z,100198.23
2019-02-17T07:46:54.192Z,100190.73
2019-02-17T07:49:25.187Z,100192.15
2019-02-17T07:51:56.070Z,100197.14
2019-02-17T07:54:27.047Z,100193.46
2019-02-17T07:56:57.937Z,100192.33
2019-02-17T07:59:28.819Z,100190.21
2019-02-17T08:01:59.514Z,100192.06
2019-02-17T08:04:30.412Z,100187.89
2019-02-17T08:07:01.292Z,100190.20
2019-02-17T08:09:32.284Z,100190.77
2019-02-17T08:12:05.214Z,100198.00
2019-02-17T08:14:36.221Z,100190.97
2019-02-17T08:17:07.189Z,100186.11
2019-02-17T08:19:38.377Z,100189.76
2019-02-17T08:22:09.370Z,100189.55
2019-02-17T08:24:40.735Z,100184.58
2019-02-17T08:27:11.667Z,100189.90
2019-02-17T08:29:42.645Z,100186.65
2019-02-17T08:32:13.547Z,100188.41
2019-02-17T08:34:44.450Z,100188.42
2019-02-17T08:37:15.327Z,100187.62
2019-02-17T08:39:46.197Z,100191.29
2019-02-17T08:42:16.984Z,100187.27
2019-02-17T08:44:47.872Z,100179.69
2019-02-17T08:47:18.752Z,100176.78
2019-02-17T08:49:49.564Z,100176.95
2019-02-17T08:52:20.341Z,100177.03
2019-02-17T08:54:51.236Z,100176.34
2019-02-17T08:57:22.002Z,100176.34
2019-02-17T08:59:53.072Z,100173.42
2019-02-17T09:02:23.872Z,100171.66
2019-02-17T09:04:54.860Z,100170.47
2019-02-17T09:07:25.920Z,100171.48
2019-02-17T09:09:56.760Z,100163.05
2019-02-17T09:12:27.524Z,100174.59
2019-02-17T09:14:58.417Z,100163.84
2019-02-17T09:17:29.205Z,100171.27
2019-02-17T09:20:00.302Z,100176.20
2019-02-17T09:22:31.296Z,100173.50
2019-02-17T09:25:02.287Z,100172.84
2019-02-17T09:27:33.077Z,100167.91
2019-02-17T09:30:04.044Z,100168.96
2019-02-17T09:32:34.836Z,100172.63
2019-02-17T09:35:06.211Z,100175.02
2019-02-17T09:37:37.132Z,100169.73
2019-02-17T09:40:09.704Z,100169.41
2019-02-17T09:42:40.633Z,100166.78
2019-02-17T09:45:12.745Z,100167.49
2019-02-17T09:47:43.548Z,100163.63
2019-02-17T09:50:14.939Z,100166.16
2019-02-17T09:52:47.013Z,100162.31
2019-02-17T09:55:17.944Z,100166.81
2019-02-17T09:57:48.824Z,100159.52
2019-02-17T10:00:19.836Z,100163.69
2019-02-17T10:02:50.616Z,100161.83
2019-02-17T10:05:21.520Z,100165.64
2019-02-17T10:07:52.383Z,100155.91
2019-02-17T10:10:23.274Z,100156.56
2019-02-17T10:12:54.147Z,100155.83
2019-02-17T10:15:25.135Z,100157.17
2019-02-17T10:17:55.940Z,100160.44
2019-02-17T10:20:26.839Z,100163.11
2019-02-17T10:22:57.705Z,100161.84
2019-02-17T10:25:28.999Z,100156.45
2019-02-17T10:27:59.797Z,100160.66
2019-02-17T10:30:30.935Z,100160.86
2019-02-17T10:33:01.760Z,100157.20
2019-02-17T10:35:32.674Z,100153.90
2019-02-17T10:38:03.630Z,100161.89
2019-02-17T10:40:34.580Z,100157.78
2019-02-17T10:43:05.636Z,100155.80
2019-02-17T10:45:36.615Z,100156.67
2019-02-17T10:48:07.411Z,100158.48
2019-02-17T10:50:39.282Z,100150.67
2019-02-17T10:53:10.208Z,100151.95
2019-02-17T10:55:41.199Z,100148.52
2019-02-17T10:58:12.066Z,100141.99
2019-02-17T11:00:42.947Z,100143.97
2019-02-17T11:03:13.880Z,100139.17
2019-02-17T11:05:44.702Z,100125.53
2019-02-17T11:08:15.695Z,100124.20
2019-02-17T11:10:46.555Z,100116.38
2019-02-17T11:13:17.441Z,100112.44
2019-02-17T11:15:48.232Z,100113.34
2019-02-17T11:18:19.058Z,100112.33
2019-02-17T11:20:49.924Z,100108.94
2019-02-17T11:23:20.744Z,100102.24
2019-02-17T11:25:51.691Z,100099.99
2019-02-17T11:28:22.675Z,100098.72
2019-02-17T11:30:53.562Z,100094.02
2019-02-17T11:33:24.407Z,100098.87
2019-02-17T11:35:55.294Z,100089.08
2019-02-17T11:38:26.066Z,100087.73
2019-02-17T11:40:56.999Z,100085.33
2019-02-17T11:43:27.899Z,100085.63
2019-02-17T11:45:58.679Z,100079.69
2019-02-17T11:48:29.410Z,100071.61
2019-02-17T11:51:01.046Z,100071.97
2019-02-17T11:53:31.924Z,100067.60
2019-02-17T11:56:03.880Z,100061.98
2019-02-17T11:58:34.774Z,100053.59
2019-02-17T12:01:05.655Z,100053.98
2019-02-17T12:03:36.591Z,100049.12
2019-02-17T12:06:07.499Z,100046.55
2019-02-17T12:08:38.466Z,100045.61
2019-02-17T12:11:09.202Z,100047.86
2019-02-17T12:13:40.079Z,100042.15
2019-02-17T12:16:10.966Z,100037.25
2019-02-17T12:18:41.711Z,100034.01
2019-02-17T12:21:18.323Z,100034.55
2019-02-17T12:24:08.051Z,100028.11
2019-02-17T12:26:53.594Z,100022.38
2019-02-17T12:29:34.715Z,100019.92
2019-02-17T12:32:05.649Z,100009.17
2019-02-17T12:34:36.614Z,100005.86
2019-02-17T12:37:07.434Z,100006.55
2019-02-17T12:39:38.323Z,100005.45
2019-02-17T12:42:09.210Z,100003.62
2019-02-17T12:44:40.200Z,99999.95
2019-02-17T12:47:11.067Z,99998.20
2019-02-17T12:49:41.818Z,99996.69
2019-02-17T12:52:12.695Z,99990.48
2019-02-17T12:54:43.490Z,99979.38
2019-02-17T12:57:14.422Z,99979.48
2019-02-17T12:59:45.256Z,99971.94
2019-02-17T13:02:16.148Z,99973.35
2019-02-17T13:04:46.991Z,99971.13
2019-02-17T13:07:17.839Z,99973.78
2019-02-17T13:09:48.610Z,99964.27
2019-02-17T13:12:19.491Z,99960.47
2019-02-17T13:14:50.372Z,99963.71
2019-02-17T13:17:21.265Z,99951.81
2019-02-17T13:19:52.042Z,99949.74
2019-02-17T13:22:23.854Z,99948.25
2019-02-17T13:24:54.712Z,99943.60
2019-02-17T13:27:26.033Z,99945.86
2019-02-17T13:29:56.824Z,99941.49
2019-02-17T13:32:27.818Z,99940.14
2019-02-17T13:34:58.612Z,99932.25
2019-02-17T13:37:30.266Z,99931.13
2019-02-17T13:40:01.191Z,99926.09
2019-02-17T13:42:33.189Z,99928.74
2019-02-17T13:45:04.096Z,99921.73
2019-02-17T13:47:35.001Z,99915.62
2019-02-17T13:50:05.994Z,99913.59
2019-02-17T13:52:36.872Z,99909.22
2019-02-17T13:55:07.941Z,99910.95
2019-02-17T13:57:39.126Z,99908.63
2019-02-17T14:00:14.247Z,99908.02
2019-02-17T14:02:45.238Z,99909.45
2019-02-17T14:05:16.122Z,99906.28
2019-02-17T14:07:47.010Z,99898.62
2019-02-17T14:10:17.888Z,99893.90
2019-02-17T14:12:48.962Z,99895.83
2019-02-17T14:15:19.791Z,99896.05
2019-02-17T14:17:50.954Z,99898.61
2019-02-17T14:20:21.648Z,99885.06
2019-02-17T14:22:52.785Z,99888.09
2019-02-17T14:25:23.609Z,99884.44
2019-02-17T14:27:54.970Z,99885.79
2019-02-17T14:30:25.921Z,99879.20
2019-02-17T14:32:57.102Z,99882.11
2019-02-17T14:35:28.931Z,99878.75
2019-02-17T14:37:59.799Z,99876.64
2019-02-17T14:40:30.586Z,99879.79
2019-02-17T14:43:01.462Z,99882.72
2019-02-17T14:45:32.565Z,99875.72
2019-02-17T14:48:03.414Z,99868.73
2019-02-17T14:50:34.306Z,99874.98
2019-02-17T14:53:05.186Z,99872.66
2019-02-17T14:55:36.093Z,99861.97
2019-02-17T14:58:06.943Z,99861.68
2019-02-17T15:00:37.832Z,99871.06
2019-02-17T15:03:08.618Z,99864.09
2019-02-17T15:05:39.664Z,99866.86
2019-02-17T15:08:10.514Z,99865.83
2019-02-17T15:10:41.503Z,99857.63
2019-02-17T15:13:12.290Z,99850.34
2019-02-17T15:15:43.628Z,99854.55
2019-02-17T15:18:22.447Z,99858.84
2019-02-17T15:20:53.734Z,99852.44
2019-02-17T15:23:24.543Z,99844.98
2019-02-17T15:25:56.567Z,99842.13
2019-02-17T15:28:27.547Z,99842.04
2019-02-17T15:30:58.513Z,99838.30
2019-02-17T15:33:29.425Z,99833.91
2019-02-17T15:36:00.298Z,99841.13
2019-02-17T15:38:31.085Z,99835.40
2019-02-17T15:41:02.056Z,99838.55
2019-02-17T15:43:32.922Z,99830.69
2019-02-17T15:46:03.905Z,99831.42
2019-02-17T15:48:34.800Z,99827.30
2019-02-17T15:51:06.812Z,99830.28
2019-02-17T15:53:38.562Z,99825.48
2019-02-17T15:56:09.509Z,99824.03
2019-02-17T15:58:40.493Z,99823.87
2019-02-17T16:01:12.392Z,99822.34
2019-02-17T16:03:44.953Z,99821.85
2019-02-17T16:06:15.930Z,99816.56
2019-02-17T16:08:47.057Z,99817.11
2019-02-17T16:11:18.007Z,99814.42
2019-02-17T16:13:48.952Z,99812.41
2019-02-17T16:16:19.936Z,99811.83
2019-02-17T16:18:50.705Z,99801.70
2019-02-17T16:21:23.517Z,99801.99
2019-02-17T16:23:53.876Z,99800.69
2019-02-17T16:26:24.762Z,99804.96
2019-02-17T16:28:55.604Z,99804.39
2019-02-17T16:31:27.615Z,99801.21
2019-02-17T16:33:58.402Z,99807.03
2019-02-17T16:36:29.241Z,99799.56
2019-02-17T16:39:00.311Z,99807.86
2019-02-17T16:41:32.020Z,99800.20
2019-02-17T16:44:02.970Z,99804.64
2019-02-17T16:46:33.746Z,99800.83
2019-02-17T16:49:04.632Z,99804.13
2019-02-17T16:51:35.468Z,99805.89
2019-02-17T16:54:06.363Z,99810.88
2019-02-17T16:56:37.259Z,99810.15
2019-02-17T16:59:08.152Z,99816.34
2019-02-17T17:01:39.138Z,99818.21
2019-02-17T17:04:10.230Z,99822.12
2019-02-17T17:06:41.106Z,99826.71
2019-02-17T17:09:12.281Z,99825.58
2019-02-17T17:11:43.197Z,99827.02
2019-02-17T17:14:14.934Z,99828.83
2019-02-17T17:16:45.714Z,99824.66
2019-02-17T17:19:16.632Z,99815.79
2019-02-17T17:21:47.609Z,99824.83
2019-02-17T17:24:18.605Z,99831.41
2019-02-17T17:26:49.671Z,99824.66
2019-02-17T17:29:20.473Z,99830.94
2019-02-17T17:31:51.342Z,99832.77
2019-02-17T17:34:24.798Z,99829.30
2019-02-17T17:36:55.808Z,99833.88
2019-02-17T17:39:26.776Z,99834.39
2019-02-17T17:41:57.641Z,99835.95
2019-02-17T17:44:28.663Z,99837.48
2019-02-17T17:46:59.439Z,99840.09
2019-02-17T17:49:30.434Z,99843.70
2019-02-17T17:52:01.343Z,99839.94
2019-02-17T17:54:31.913Z,99845.12
2019-02-17T17:57:02.990Z,99843.54
2019-02-17T17:59:33.793Z,99851.48
2019-02-17T18:02:04.794Z,99845.98
2019-02-17T18:04:35.566Z,99852.97
2019-02-17T18:07:07.165Z,99847.99
2019-02-17T18:09:37.722Z,99849.70
2019-02-17T18:12:08.825Z,99853.20
2019-02-17T18:14:39.633Z,99855.78
2019-02-17T18:17:10.624Z,99860.55
2019-02-17T18:19:41.514Z,99853.01
2019-02-17T18:22:12.234Z,99865.88
2019-02-17T18:24:42.773Z,99862.63
2019-02-17T18:27:14.416Z,99869.27
2019-02-17T18:29:45.245Z,99867.92
2019-02-17T18:32:16.130Z,99867.44
2019-02-17T18:34:47.028Z,99866.25
2019-02-17T18:37:17.926Z,99867.28
2019-02-17T18:39:48.708Z,99862.81
2019-02-17T18:42:19.610Z,99866.78
2019-02-17T18:44:50.366Z,99863.05
2019-02-17T18:47:21.252Z,99865.53
2019-02-17T18:49:52.061Z,99867.58
2019-02-17T18:52:22.930Z,99874.91
2019-02-17T18:54:53.717Z,99869.64
2019-02-17T18:57:24.798Z,99865.83
2019-02-17T18:59:55.606Z,99869.58
2019-02-17T19:02:26.569Z,99874.10
2019-02-17T19:04:57.361Z,99871.50
2019-02-17T19:07:28.352Z,99867.02
2019-02-17T19:10:00.317Z,99875.06
2019-02-17T19:12:31.438Z,99879.87
2019-02-17T19:15:02.261Z,99879.53
2019-02-17T19:17:33.441Z,99881.25
2019-02-17T19:20:04.655Z,99888.39
2019-02-17T19:22:35.650Z,99887.02
2019-02-17T19:25:06.737Z,99890.70
2019-02-17T19:27:37.609Z,99894.41
2019-02-17T19:30:09.105Z,99900.42
2019-02-17T19:32:40.010Z,99900.73
2019-02-17T19:35:11.930Z,99897.11
2019-02-17T19:37:44.333Z,99905.39
2019-02-17T19:40:14.821Z,99904.32
2019-02-17T19:42:45.710Z,99900.72
2019-02-17T19:45:16.397Z,99904.47
2019-02-17T19:47:48.297Z,99902.02
2019-02-17T19:50:19.362Z,99892.23
2019-02-17T19:52:50.189Z,99898.70
2019-02-17T19:55:21.174Z,99901.37
2019-02-17T19:57:51.991Z,99904.08
2019-02-17T20:00:22.847Z,99906.27
2019-02-17T20:03:11.794Z,99900.45
2019-02-17T20:05:51.685Z,99904.83
2019-02-17T20:08:18.144Z,99912.19
2019-02-17T20:10:49.005Z,99910.52
2019-02-17T20:13:19.911Z,99914.55
2019-02-17T20:15:51.134Z,99909.52
2019-02-17T20:18:22.128Z,99906.52
2019-02-17T20:20:53.014Z,99914.86
2019-02-17T20:23:24.815Z,99917.57
2019-02-17T20:25:57.870Z,99915.27
2019-02-17T20:28:40.581Z,99920.13
2019-02-17T20:31:00.989Z,99914.80
2019-02-17T20:33:31.783Z,99920.00
2019-02-17T20:36:03.230Z,99913.64
2019-02-17T20:38:36.337Z,99914.30
2019-02-17T20:41:07.230Z,99913.81
2019-02-17T20:43:38.255Z,99916.31
2019-02-17T20:46:09.125Z,99916.66
2019-02-17T20:48:40.496Z,99916.84
2019-02-17T20:51:11.504Z,99912.69
2019-02-17T20:53:42.387Z,99917.68
2019-02-17T20:56:13.269Z,99913.70
2019-02-17T20:58:44.243Z,99915.38
2019-02-17T21:01:15.410Z,99922.89
2019-02-17T21:03:46.541Z,99915.72
2019-02-17T21:06:17.446Z,99916.56
2019-02-17T21:08:48.350Z,99910.71
2019-02-17T21:11:19.129Z,99908.19
2019-02-17T21:13:50.006Z,99906.03
2019-02-17T21:16:21.048Z,99902.20
2019-02-17T21:18:51.861Z,99904.01
2019-02-17T21:21:22.762Z,99900.18
2019-02-17T21:23:53.652Z,99904.70
2019-02-17T21:26:26.414Z,99899.00
2019-02-17T21:28:57.165Z,99899.17
2019-02-17T21:31:28.062Z,99900.19
2019-02-17T21:33:58.942Z,99899.52
2019-02-17T21:36:29.835Z,99899.50
2019-02-17T21:39:00.730Z,99899.33
2019-02-17T21:41:33.052Z,99904.36
2019-02-17T21:44:04.054Z,99901.33
2019-02-17T21:46:35.213Z,99903.69
2019-02-17T21:49:06.112Z,99903.50
2019-02-17T21:51:37.014Z,99907.34
2019-02-17T21:54:08.089Z,99901.63
2019-02-17T21:56:38.888Z,99905.64
2019-02-17T21:59:09.759Z,99903.95
2019-02-17T22:01:40.547Z,99911.11
2019-02-17T22:04:11.837Z,99898.77
2019-02-17T22:06:42.745Z,99904.58
2019-02-17T22:09:13.924Z,99891.58
2019-02-17T22:11:44.812Z,99901.08
2019-02-17T22:14:15.772Z,99894.44
2019-02-17T22:16:46.602Z,99894.77
2019-02-17T22:19:17.783Z,99893.64
2019-02-17T22:21:48.866Z,99886.16
2019-02-17T22:24:19.914Z,99890.33
2019-02-17T22:26:50.850Z,99889.67
2019-02-17T22:29:21.854Z,99891.66
2019-02-17T22:31:52.647Z,99893.63
2019-02-17T22:34:24.252Z,99894.56
2019-02-17T22:36:55.032Z,99889.68
2019-02-17T22:39:26.214Z,99888.85
2019-02-17T22:41:56.992Z,99887.45
2019-02-17T22:44:27.890Z,99885.94
2019-02-17T22:46:58.782Z,99873.58
2019-02-17T22:49:29.662Z,99879.23
2019-02-17T22:52:00.584Z,99885.52
2019-02-17T22:54:31.517Z,99890.95
2019-02-17T22:57:02.343Z,99885.27
2019-02-17T22:59:33.206Z,99888.45
2019-02-17T23:02:04.270Z,99877.80
2019-02-17T23:04:35.217Z,99883.33
2019-02-17T23:07:06.093Z,99889.80
2019-02-17T23:09:37.159Z,99893.45
2019-02-17T23:12:08.176Z,99894.83
2019-02-17T23:14:39.568Z,99898.81
2019-02-17T23:17:10.446Z,99902.16
2019-02-17T23:19:41.445Z,99897.29
2019-02-17T23:22:12.221Z,99902.41
2019-02-17T23:24:43.221Z,99908.35
2019-02-17T23:27:14.059Z,99906.94
2019-02-17T23:29:44.849Z,99901.19
2019-02-17T23:32:15.774Z,99903.68
2019-02-17T23:34:47.282Z,99907.67
2019-02-17T23:37:18.418Z,99905.97
2019-02-17T23:39:49.305Z,99901.86
2019-02-17T23:42:20.296Z,99900.80
2019-02-17T23:44:51.089Z,99900.36
2019-02-17T23:47:22.073Z,99895.05
2019-02-17T23:49:52.964Z,99900.23
2019-02-17T23:52:24.004Z,99897.53
2019-02-17T23:54:54.863Z,99897.78
2019-02-17T23:57:25.953Z,99893.63
2019-02-17T23:59:56.813Z,99889.31
